Time;durP1;ratioP1;P1;durP2;ratioP2;P2;SDS_P1;SDS_P2;PMS_P1;PMS_P2;Temp;Humidity;BMP_temperature;BMP_pressure;BME280_temperature;BME280_humidity;BME280_pressure;Samples;Min_cycle;Max_cycle;Signal;HPM_P1;HPM_P2
2022/09/11 00:01:32;;;;;;;9.50;3.10;;;;;;;16.25;100.00;100679.24;1752329;81;28856;-66
2022/09/11 00:04:01;;;;;;;7.95;3.37;;;;;;;16.26;100.00;100685.02;1757087;81;25795;-66
2022/09/11 00:06:30;;;;;;;5.80;3.60;;;;;;;16.27;100.00;100681.77;1759481;81;25715;-67
2022/09/11 00:09:01;;;;;;;11.90;2.98;;;;;;;16.20;100.00;100670.77;1759716;81;25728;-66
2022/09/11 00:11:32;;;;;;;6.25;3.40;;;;;;;16.16;100.00;100665.86;1759720;80;25707;-66
2022/09/11 00:14:00;;;;;;;5.80;2.87;;;;;;;16.10;100.00;100665.55;1759707;80;27473;-67
2022/09/11 00:16:35;;;;;;;10.32;2.95;;;;;;;16.09;100.00;100671.17;1759833;80;25822;-66
2022/09/11 00:19:12;;;;;;;6.72;2.85;;;;;;;16.09;100.00;100677.42;1759447;81;25705;-67
2022/09/11 00:21:39;;;;;;;3.70;3.40;;;;;;;16.11;100.00;100677.24;1729741;81;25746;-66
2022/09/11 00:24:10;;;;;;;8.98;3.83;;;;;;;16.11;100.00;100674.03;1757339;81;25804;-66
2022/09/11 00:26:39;;;;;;;6.60;3.35;;;;;;;16.12;100.00;100677.58;1751887;81;28121;-67
2022/09/11 00:29:07;;;;;;;4.80;3.35;;;;;;;16.09;100.00;100675.23;1752301;81;25725;-67
2022/09/11 00:31:34;;;;;;;11.85;3.60;;;;;;;16.05;100.00;100672.00;1752145;81;25731;-66
2022/09/11 00:34:01;;;;;;;9.50;3.60;;;;;;;16.05;100.00;100674.72;1752521;80;25780;-70
2022/09/11 00:36:31;;;;;;;11.55;3.80;;;;;;;16.10;100.00;100672.83;1751943;81;25802;-71
2022/09/11 00:38:59;;;;;;;9.83;3.30;;;;;;;16.13;100.00;100674.37;1752758;81;27500;-70
2022/09/11 00:41:35;;;;;;;7.05;3.47;;;;;;;16.15;100.00;100678.60;1759649;81;25716;-70
2022/09/11 00:44:15;;;;;;;8.70;3.67;;;;;;;16.15;100.00;100669.10;1759954;81;25816;-71
2022/09/11 00:46:52;;;;;;;11.83;3.67;;;;;;;16.15;100.00;100677.24;1759708;81;25735;-71
2022/09/11 00:49:44;;;;;;;11.15;3.37;;;;;;;16.14;100.00;100666.58;1759514;81;25843;-71
2022/09/11 00:52:16;;;;;;;20.75;3.25;;;;;;;16.15;100.00;100666.88;1759688;81;27467;-71
2022/09/11 00:54:48;;;;;;;12.90;3.52;;;;;;;16.12;100.00;100673.52;1759638;80;26434;-70
2022/09/11 00:57:18;;;;;;;12.60;3.65;;;;;;;16.09;100.00;100682.86;1759887;80;25753;-71
2022/09/11 00:59:48;;;;;;;11.50;4.28;;;;;;;16.08;100.00;100680.33;1759630;81;25815;-70
2022/09/11 01:02:18;;;;;;;4.22;3.75;;;;;;;16.07;100.00;100683.53;1759784;81;25923;-71
2022/09/11 01:04:45;;;;;;;5.62;3.22;;;;;;;16.07;100.00;100675.91;1758857;81;27490;-70
2022/09/11 01:07:17;;;;;;;4.00;3.37;;;;;;;16.08;100.00;100665.41;1762952;81;25747;-71
2022/09/11 01:09:44;;;;;;;8.00;3.40;;;;;;;16.08;100.00;100666.76;1763083;80;25701;-71
2022/09/11 01:12:54;;;;;;;13.85;3.47;;;;;;;16.06;100.00;100659.30;1762764;81;25918;-71
2022/09/11 01:15:32;;;;;;;7.53;3.30;;;;;;;16.02;99.85;100656.09;1762938;80;25809;-71
2022/09/11 01:18:28;;;;;;;10.25;3.40;;;;;;;15.94;99.08;100663.73;1762884;80;28462;-70
2022/09/11 01:21:12;;;;;;;5.50;3.20;;;;;;;15.93;99.39;100672.06;1762595;80;25844;-70
2022/09/11 01:24:08;;;;;;;7.40;3.72;;;;;;;15.89;99.52;100671.56;1762196;81;25518;-71
2022/09/11 01:27:02;;;;;;;12.47;4.30;;;;;;;15.88;99.52;100687.50;1749431;81;25795;-71
2022/09/11 01:29:41;;;;;;;13.72;3.92;;;;;;;15.84;98.46;100683.42;1738075;82;25884;-70
2022/09/11 01:32:21;;;;;;;13.62;4.45;;;;;;;15.84;98.79;100690.73;1737670;82;27543;-70
2022/09/11 01:34:56;;;;;;;7.30;4.05;;;;;;;15.78;97.88;100694.42;1737757;82;25807;-71
2022/09/11 01:37:30;;;;;;;6.45;3.85;;;;;;;15.82;98.73;100700.38;1737923;82;25677;-71
2022/09/11 01:40:09;;;;;;;9.18;4.03;;;;;;;15.86;98.68;100703.62;1737647;81;25838;-69
2022/09/11 01:42:41;;;;;;;17.15;3.87;;;;;;;15.87;98.64;100690.39;1766265;81;26373;-71
2022/09/11 01:45:11;;;;;;;7.72;3.70;;;;;;;15.90;98.57;100688.67;1766327;79;28327;-71
2022/09/11 01:47:41;;;;;;;5.08;3.75;;;;;;;15.91;98.85;100679.52;1749027;82;25775;-71
2022/09/11 01:50:12;;;;;;;6.45;3.77;;;;;;;15.93;98.77;100667.98;1749281;81;25778;-71
2022/09/11 01:52:45;;;;;;;28.57;4.33;;;;;;;15.93;98.76;100665.28;1765462;81;25795;-71
2022/09/11 01:55:20;;;;;;;7.33;3.92;;;;;;;15.90;98.02;100665.61;1764594;81;25811;-70
2022/09/11 01:58:12;;;;;;;20.05;4.40;;;;;;;15.87;97.97;100665.45;1766320;79;27634;-70
2022/09/11 02:00:45;;;;;;;13.03;4.63;;;;;;;15.84;97.61;100674.45;1766570;79;26285;-71
2022/09/11 02:03:23;;;;;;;15.48;4.28;;;;;;;15.81;97.69;100679.69;1749158;82;25479;-71
2022/09/11 02:06:00;;;;;;;9.43;4.67;;;;;;;15.80;97.86;100682.06;1749113;82;25881;-70
2022/09/11 02:08:43;;;;;;;7.12;4.45;;;;;;;15.76;97.43;100685.63;1749063;81;25667;-71
2022/09/11 02:11:13;;;;;;;9.38;4.30;;;;;;;15.71;97.40;100679.86;1748992;82;27510;-71
2022/09/11 02:14:05;;;;;;;9.25;4.25;;;;;;;15.70;97.27;100678.69;1749050;82;25760;-70
2022/09/11 02:16:53;;;;;;;12.33;4.35;;;;;;;15.70;97.34;100680.87;1749128;82;25829;-71
2022/09/11 02:19:27;;;;;;;10.43;4.70;;;;;;;15.66;96.59;100674.13;1749110;81;26483;-71
2022/09/11 02:21:56;;;;;;;8.83;4.45;;;;;;;15.58;95.88;100680.39;1749103;81;25486;-71
2022/09/11 02:24:26;;;;;;;13.28;4.50;;;;;;;15.56;96.47;100678.88;1749157;82;27576;-70
2022/09/11 02:27:10;;;;;;;10.58;4.28;;;;;;;15.58;97.04;100675.49;1750452;81;25891;-70
2022/09/11 02:29:38;;;;;;;16.20;4.28;;;;;;;15.57;97.03;100672.44;1761309;81;25740;-71
2022/09/11 02:32:09;;;;;;;13.80;4.67;;;;;;;15.56;97.20;100671.58;1761923;81;25712;-71
2022/09/11 02:34:38;;;;;;;10.03;4.15;;;;;;;15.55;96.85;100675.33;1762174;81;25741;-71
2022/09/11 02:37:52;;;;;;;9.63;4.50;;;;;;;15.56;97.04;100678.88;1732703;81;28546;-71
2022/09/11 02:40:37;;;;;;;13.90;5.83;;;;;;;15.54;96.55;100673.63;1776055;80;26331;-72
2022/09/11 02:43:43;;;;;;;13.40;4.95;;;;;;;15.48;96.11;100671.59;1764726;81;25698;-71
2022/09/11 02:46:44;;;;;;;9.48;4.90;;;;;;;15.46;96.41;100669.58;1770708;81;25679;-71
2022/09/11 02:49:50;;;;;;;11.85;4.58;;;;;;;15.48;96.69;100670.23;1739023;81;25805;-70
2022/09/11 02:52:58;;;;;;;12.05;4.37;;;;;;;15.48;96.82;100669.73;1770185;81;27526;-70
2022/09/11 02:55:56;;;;;;;10.45;4.37;;;;;;;15.49;97.26;100667.37;1770451;79;25848;-71
2022/09/11 02:58:49;;;;;;;10.65;4.53;;;;;;;15.43;96.67;100665.84;1770602;81;25898;-71
2022/09/11 03:01:17;;;;;;;13.90;5.00;;;;;;;15.41;96.95;100667.87;1770627;81;25769;-69
2022/09/11 03:03:46;;;;;;;10.05;4.42;;;;;;;15.42;97.24;100664.15;1778320;80;25743;-71
2022/09/11 03:06:21;;;;;;;9.18;4.30;;;;;;;15.45;97.48;100666.00;1784115;80;28221;-70
2022/09/11 03:08:48;;;;;;;7.58;4.55;;;;;;;15.49;97.42;100674.64;1783101;80;25806;-70
2022/09/11 03:11:18;;;;;;;13.10;4.65;;;;;;;15.49;97.04;100670.08;1784108;80;25719;-71
2022/09/11 03:13:46;;;;;;;9.40;4.70;;;;;;;15.56;97.61;100674.28;1784216;80;25648;-70
2022/09/11 03:16:14;;;;;;;18.25;5.20;;;;;;;15.59;97.79;100671.24;1784243;80;25965;-70
2022/09/11 03:18:41;;;;;;;15.72;5.33;;;;;;;15.60;96.73;100670.23;1784055;79;27491;-69
2022/09/11 03:21:10;;;;;;;10.80;5.12;;;;;;;15.62;96.63;100664.63;1783956;80;25713;-69
2022/09/11 03:23:37;;;;;;;7.95;4.80;;;;;;;15.62;95.77;100663.27;1782713;80;25673;-70
2022/09/11 03:26:06;;;;;;;9.48;4.10;;;;;;;15.64;96.01;100666.14;1771268;80;26415;-69
2022/09/11 03:28:34;;;;;;;9.15;4.90;;;;;;;15.64;95.82;100670.20;1767233;80;25799;-70
2022/09/11 03:31:03;;;;;;;16.90;5.05;;;;;;;15.66;95.71;100678.19;1764962;81;27583;-70
2022/09/11 03:33:31;;;;;;;12.90;5.03;;;;;;;15.71;96.28;100680.38;1765329;79;25952;-70
2022/09/11 03:35:58;;;;;;;5.85;4.37;;;;;;;15.75;96.37;100683.94;1765419;80;26646;-70
2022/09/11 03:38:25;;;;;;;10.88;5.00;;;;;;;15.80;96.55;100679.35;1765745;79;25660;-70
2022/09/11 03:40:53;;;;;;;9.55;4.90;;;;;;;15.84;96.66;100676.64;1780893;80;26134;-70
2022/09/11 03:43:21;;;;;;;11.48;4.83;;;;;;;15.87;96.61;100667.34;1783540;80;27436;-70
2022/09/11 03:45:49;;;;;;;9.55;5.12;;;;;;;15.91;96.42;100672.73;1783616;80;25732;-70
2022/09/11 03:48:17;;;;;;;9.95;4.95;;;;;;;15.93;96.44;100679.67;1783763;80;25687;-71
2022/09/11 03:50:46;;;;;;;11.08;4.42;;;;;;;15.95;96.41;100683.06;1783499;80;25798;-70
2022/09/11 03:53:15;;;;;;;9.70;4.62;;;;;;;15.96;96.19;100682.05;1783826;79;25454;-68
2022/09/11 03:55:44;;;;;;;10.60;4.70;;;;;;;15.99;96.22;100677.30;1783542;80;27571;-70
2022/09/11 03:58:13;;;;;;;6.08;4.50;;;;;;;15.96;96.30;100673.05;1783711;79;25901;-69
2022/09/11 04:00:43;;;;;;;13.68;4.92;;;;;;;15.93;95.54;100667.98;1783427;80;25724;-69
2022/09/11 04:03:11;;;;;;;11.15;5.15;;;;;;;15.90;95.17;100668.33;1778091;80;25514;-69
2022/09/11 04:05:42;;;;;;;6.37;5.12;;;;;;;15.92;95.38;100665.77;1765204;79;25763;-69
2022/09/11 04:08:13;;;;;;;15.13;5.20;;;;;;;15.95;95.63;100658.65;1765899;81;26884;-69
2022/09/11 04:10:42;;;;;;;7.60;5.05;;;;;;;16.00;95.99;100660.01;1765591;80;25730;-69
2022/09/11 04:13:10;;;;;;;9.83;5.12;;;;;;;16.02;95.55;100668.80;1765735;79;25654;-69
2022/09/11 04:15:38;;;;;;;9.18;5.17;;;;;;;16.00;94.67;100673.58;1766081;80;25747;-69
2022/09/11 04:18:07;;;;;;;11.12;5.22;;;;;;;15.99;94.91;100680.02;1765700;79;25722;-70
2022/09/11 04:20:39;;;;;;;16.70;5.12;;;;;;;15.99;95.31;100684.08;1765773;79;28153;-69
2022/09/11 04:23:06;;;;;;;16.97;5.62;;;;;;;16.03;95.25;100697.63;1765875;80;25806;-69
2022/09/11 04:25:33;;;;;;;10.32;5.00;;;;;;;16.01;94.50;100695.59;1765494;79;25672;-69
2022/09/11 04:28:02;;;;;;;12.30;4.85;;;;;;;15.99;94.95;100689.51;1765226;80;25721;-70
2022/09/11 04:30:30;;;;;;;7.72;4.70;;;;;;;15.97;95.67;100686.95;1765447;81;25718;-70
2022/09/11 04:32:57;;;;;;;13.78;5.50;;;;;;;15.93;95.16;100697.83;1765566;81;27494;-69
2022/09/11 04:35:25;;;;;;;14.47;5.28;;;;;;;15.94;95.14;100700.88;1765596;81;25790;-69
2022/09/11 04:37:54;;;;;;;15.18;5.30;;;;;;;15.88;94.17;100704.27;1765735;79;25679;-70
2022/09/11 04:40:21;;;;;;;10.63;5.30;;;;;;;15.81;93.57;100703.58;1776811;80;25842;-69
2022/09/11 04:42:49;;;;;;;12.33;6.00;;;;;;;15.77;93.76;100705.45;1783791;80;26267;-70
2022/09/11 04:45:16;;;;;;;8.00;5.30;;;;;;;15.71;93.10;100704.79;1783795;80;28303;-69
2022/09/11 04:47:42;;;;;;;8.50;5.12;;;;;;;15.68;94.37;100703.77;1783798;79;25462;-69
2022/09/11 04:50:11;;;;;;;11.73;5.65;;;;;;;15.64;93.85;100698.67;1783606;80;25510;-69
2022/09/11 04:52:39;;;;;;;8.53;5.12;;;;;;;15.60;93.26;100701.41;1784073;80;25767;-70
2022/09/11 04:55:08;;;;;;;12.28;5.70;;;;;;;15.55;93.17;100711.06;1783674;80;26034;-69
2022/09/11 04:57:35;;;;;;;12.70;5.12;;;;;;;15.54;93.94;100707.52;1783559;79;27543;-70
2022/09/11 05:00:06;;;;;;;13.83;5.37;;;;;;;15.50;93.76;100706.16;1783519;79;25638;-70
2022/09/11 05:02:33;;;;;;;11.05;5.28;;;;;;;15.46;93.85;100702.94;1782752;79;25735;-70
2022/09/11 05:05:00;;;;;;;8.38;5.65;;;;;;;15.47;94.39;100707.84;1765807;79;25817;-71
2022/09/11 05:07:28;;;;;;;8.45;4.62;;;;;;;15.54;94.76;100707.52;1765905;81;25834;-70
2022/09/11 05:09:56;;;;;;;6.65;5.30;;;;;;;15.52;93.92;100697.84;1784789;79;27484;-69
2022/09/11 05:12:23;;;;;;;11.65;5.35;;;;;;;15.45;93.23;100691.75;1802398;79;25731;-69
2022/09/11 05:14:50;;;;;;;6.25;4.87;;;;;;;15.47;93.87;100690.22;1802642;79;25476;-69
2022/09/11 05:17:17;;;;;;;9.10;5.15;;;;;;;15.52;94.04;100686.51;1802838;79;25725;-69
2022/09/11 05:19:44;;;;;;;9.08;5.12;;;;;;;15.56;94.13;100688.36;1802753;79;25691;-68
2022/09/11 05:22:12;;;;;;;6.08;5.03;;;;;;;15.60;94.52;100681.07;1802620;79;28303;-69
2022/09/11 05:24:41;;;;;;;12.07;5.22;;;;;;;15.72;95.02;100682.08;1792249;79;25806;-69
2022/09/11 05:27:10;;;;;;;7.25;5.08;;;;;;;15.71;93.84;100685.81;1783708;80;25973;-68
2022/09/11 05:29:38;;;;;;;7.20;5.60;;;;;;;15.71;93.61;100691.23;1783377;80;25884;-68
2022/09/11 05:32:07;;;;;;;10.08;5.15;;;;;;;15.74;93.09;100699.00;1783286;80;25551;-69
2022/09/11 05:34:33;;;;;;;9.63;4.83;;;;;;;15.74;93.31;100693.09;1783530;79;27474;-69
2022/09/11 05:37:01;;;;;;;6.87;4.85;;;;;;;15.78;92.64;100690.34;1783621;80;25672;-71
2022/09/11 05:39:30;;;;;;;11.53;5.67;;;;;;;15.80;92.73;100691.03;1778397;80;25688;-70
2022/09/11 05:41:57;;;;;;;8.55;5.35;;;;;;;15.82;91.51;100699.02;1775993;80;25698;-71
2022/09/11 05:44:26;;;;;;;6.87;5.75;;;;;;;15.81;92.02;100698.67;1775898;79;25533;-68
2022/09/11 05:46:53;;;;;;;8.70;5.30;;;;;;;15.86;92.35;100698.19;1776125;80;27482;-69
2022/09/11 05:49:20;;;;;;;10.80;4.80;;;;;;;15.93;93.04;100699.19;1775645;80;25932;-70
2022/09/11 05:51:47;;;;;;;8.15;4.92;;;;;;;15.90;90.45;100700.88;1775905;80;25886;-70
2022/09/11 05:54:15;;;;;;;11.80;4.58;;;;;;;15.90;91.10;100696.31;1774152;80;25849;-69
2022/09/11 05:56:44;;;;;;;11.30;5.33;;;;;;;15.96;91.90;100688.83;1785117;78;25775;-68
2022/09/11 05:59:13;;;;;;;8.60;5.08;;;;;;;16.06;92.26;100682.36;1789676;78;27622;-68
2022/09/11 06:01:42;;;;;;;15.40;4.62;;;;;;;16.13;92.43;100677.92;1789715;78;25817;-68
2022/09/11 06:04:14;;;;;;;8.43;4.30;;;;;;;16.20;92.34;100677.55;1788189;78;25805;-70
2022/09/11 06:06:43;;;;;;;15.70;5.10;;;;;;;16.26;92.37;100681.43;1758903;78;25833;-69
2022/09/11 06:09:10;;;;;;;6.17;4.30;;;;;;;16.30;92.09;100678.72;1783918;78;26256;-69
2022/09/11 06:11:36;;;;;;;5.85;4.45;;;;;;;16.35;91.41;100691.76;1789570;78;28016;-69
2022/09/11 06:14:04;;;;;;;10.38;4.55;;;;;;;16.36;90.61;100688.86;1786006;78;25741;-69
2022/09/11 06:16:33;;;;;;;11.03;4.67;;;;;;;16.46;91.15;100685.92;1788814;78;25723;-69
2022/09/11 06:19:04;;;;;;;8.58;4.33;;;;;;;16.48;90.68;100683.88;1790580;78;25807;-70
2022/09/11 06:21:30;;;;;;;12.90;5.58;;;;;;;16.49;90.74;100684.22;1788676;78;25754;-69
2022/09/11 06:24:04;;;;;;;15.32;4.00;;;;;;;16.51;90.79;100684.89;1792701;78;27518;-70
2022/09/11 06:26:34;;;;;;;8.00;4.50;;;;;;;16.53;90.57;100681.98;1788196;78;27012;-69
2022/09/11 06:29:02;;;;;;;8.68;4.53;;;;;;;16.52;89.75;100678.44;1749630;81;25552;-69
2022/09/11 06:31:29;;;;;;;6.53;3.95;;;;;;;16.50;88.94;100683.20;1752960;81;25809;-69
2022/09/11 06:33:56;;;;;;;4.15;3.45;;;;;;;16.50;88.39;100687.27;1749511;81;25457;-69
2022/09/11 06:36:26;;;;;;;4.22;3.33;;;;;;;16.48;87.21;100688.48;1738552;82;27490;-69
2022/09/11 06:38:56;;;;;;;8.10;3.83;;;;;;;16.50;87.50;100686.41;1739814;81;25525;-68
2022/09/11 06:41:26;;;;;;;9.65;4.25;;;;;;;16.52;87.34;100690.66;1770759;81;25717;-70
2022/09/11 06:43:55;;;;;;;10.45;3.37;;;;;;;16.56;86.96;100696.05;1771078;80;25792;-69
2022/09/11 06:46:24;;;;;;;11.20;4.00;;;;;;;16.61;86.88;100690.61;1753256;81;25758;-70
2022/09/11 06:48:55;;;;;;;9.33;3.52;;;;;;;16.64;86.31;100687.03;1770969;79;28794;-69
2022/09/11 06:51:23;;;;;;;5.65;2.40;;;;;;;16.72;86.01;100686.11;1770450;80;25810;-70
2022/09/11 06:53:57;;;;;;;3.30;2.25;;;;;;;16.77;84.50;100686.44;1770701;79;25649;-70
2022/09/11 06:56:33;;;;;;;3.37;2.85;;;;;;;16.78;84.46;100685.42;1755222;80;26477;-70
2022/09/11 06:58:59;;;;;;;3.75;2.45;;;;;;;16.85;84.62;100689.11;1755675;80;25769;-70
2022/09/11 07:01:27;;;;;;;9.75;3.10;;;;;;;16.90;84.23;100692.64;1758413;81;27460;-71
2022/09/11 07:03:56;;;;;;;5.40;3.02;;;;;;;16.95;84.10;100697.57;1755066;80;26164;-72
2022/09/11 07:06:27;;;;;;;6.92;3.62;;;;;;;16.99;84.03;100695.67;1743307;81;25778;-69
2022/09/11 07:09:02;;;;;;;13.78;3.20;;;;;;;17.08;84.30;100698.33;1722084;82;25759;-69
2022/09/11 07:11:37;;;;;;;6.87;3.65;;;;;;;17.15;83.70;100693.85;1737582;82;25939;-71
2022/09/11 07:14:05;;;;;;;7.12;3.40;;;;;;;17.20;83.86;100696.36;1738881;82;28660;-70
2022/09/11 07:16:34;;;;;;;8.48;3.60;;;;;;;17.28;84.01;100694.59;1738515;81;25774;-70
2022/09/11 07:19:04;;;;;;;9.23;4.00;;;;;;;17.36;83.05;100691.81;1738674;82;25798;-70
2022/09/11 07:21:33;;;;;;;12.90;3.90;;;;;;;17.42;83.04;100692.95;1738712;82;25761;-70
2022/09/11 07:24:03;;;;;;;10.40;3.27;;;;;;;17.49;82.78;100693.41;1747286;81;25966;-71
2022/09/11 07:26:31;;;;;;;9.98;3.22;;;;;;;17.55;81.63;100690.97;1770562;80;27546;-71
2022/09/11 07:29:00;;;;;;;5.50;2.98;;;;;;;17.60;80.18;100688.56;1768855;79;25813;-70
2022/09/11 07:31:31;;;;;;;4.12;3.27;;;;;;;17.69;78.54;100690.17;1765831;81;25709;-71
2022/09/11 07:33:59;;;;;;;4.58;3.22;;;;;;;17.76;78.74;100697.91;1765780;79;25646;-71
2022/09/11 07:36:29;;;;;;;10.23;3.30;;;;;;;17.81;78.32;100691.92;1765620;81;25795;-69
2022/09/11 07:38:58;;;;;;;4.40;2.80;;;;;;;17.86;76.64;100688.64;1765822;81;27620;-70
2022/09/11 07:41:28;;;;;;;7.30;3.05;;;;;;;17.91;77.15;100692.49;1764989;79;25721;-70
2022/09/11 07:43:59;;;;;;;6.47;2.50;;;;;;;18.01;77.23;100692.77;1765715;81;25732;-70
2022/09/11 07:46:30;;;;;;;10.18;3.00;;;;;;;18.05;75.44;100695.42;1765644;80;25450;-71
2022/09/11 07:48:58;;;;;;;6.53;3.70;;;;;;;18.10;75.14;100688.39;1765754;81;25817;-71
2022/09/11 07:51:25;;;;;;;11.03;2.90;;;;;;;18.09;72.90;100694.86;1765584;81;28225;-70
2022/09/11 07:53:58;;;;;;;6.15;3.00;;;;;;;18.14;73.40;100691.08;1759120;79;25717;-70
2022/09/11 07:56:26;;;;;;;6.90;2.85;;;;;;;18.23;72.47;100685.53;1741300;81;25730;-70
2022/09/11 07:58:55;;;;;;;7.42;3.17;;;;;;;18.35;72.01;100684.00;1748566;81;25918;-71
2022/09/11 08:01:26;;;;;;;3.72;2.33;;;;;;;18.45;72.42;100681.83;1756911;80;25761;-71
2022/09/11 08:04:01;;;;;;;5.30;2.60;;;;;;;18.55;71.29;100676.59;1753275;81;28290;-69
2022/09/11 08:06:32;;;;;;;5.72;2.35;;;;;;;18.63;70.18;100675.13;1748654;81;25802;-69
2022/09/11 08:09:04;;;;;;;7.72;2.58;;;;;;;18.76;69.49;100678.02;1748477;80;25782;-68
2022/09/11 08:11:40;;;;;;;5.92;2.65;;;;;;;18.93;69.44;100673.70;1745004;81;26222;-70
2022/09/11 08:14:08;;;;;;;6.83;2.52;;;;;;;19.06;67.97;100669.73;1765982;81;25725;-70
2022/09/11 08:16:37;;;;;;;7.95;3.17;;;;;;;19.19;69.49;100662.73;1765939;80;27470;-70
2022/09/11 08:19:06;;;;;;;6.28;2.55;;;;;;;19.36;68.40;100664.14;1765884;80;26418;-69
2022/09/11 08:21:34;;;;;;;30.65;4.42;;;;;;;19.47;68.31;100657.83;1765946;79;25873;-70
2022/09/11 08:24:04;;;;;;;24.43;3.77;;;;;;;19.60;67.43;100653.81;1765761;81;25712;-70
2022/09/11 08:26:31;;;;;;;7.65;2.47;;;;;;;19.76;68.04;100655.94;1766015;81;26376;-70
2022/09/11 08:29:00;;;;;;;7.25;3.10;;;;;;;19.89;67.50;100657.41;1769483;79;27443;-70
2022/09/11 08:31:29;;;;;;;3.70;2.70;;;;;;;20.04;68.12;100655.09;1786603;80;25904;-71
2022/09/11 08:33:57;;;;;;;23.42;3.45;;;;;;;20.20;67.87;100652.02;1786749;80;25750;-70
2022/09/11 08:36:25;;;;;;;9.05;2.80;;;;;;;20.35;66.32;100657.31;1786590;80;26724;-70
2022/09/11 08:38:54;;;;;;;24.70;4.50;;;;;;;20.43;65.05;100653.57;1786775;80;25797;-70
2022/09/11 08:41:46;;;;;;;5.72;2.70;;;;;;;20.56;64.00;100650.89;1786590;80;28167;-71
2022/09/11 08:44:20;;;;;;;6.45;3.10;;;;;;;20.74;64.83;100657.16;1786699;78;26127;-71
2022/09/11 08:46:55;;;;;;;3.75;2.30;;;;;;;20.95;64.26;100658.06;1802931;78;25729;-70
2022/09/11 08:49:26;;;;;;;9.20;2.83;;;;;;;21.13;61.89;100645.67;1770024;80;26503;-70
2022/09/11 08:51:58;;;;;;;51.65;4.45;;;;;;;21.28;61.60;100649.03;1746476;80;25806;-70
2022/09/11 08:54:36;;;;;;;5.75;2.40;;;;;;;21.50;60.89;100641.98;1777025;80;27524;-70
2022/09/11 08:57:48;;;;;;;6.72;2.60;;;;;;;21.72;60.62;100643.98;1746340;80;26446;-70
2022/09/11 09:00:45;;;;;;;4.25;2.22;;;;;;;21.92;58.95;100639.00;1777217;80;26608;-71
2022/09/11 09:03:55;;;;;;;8.70;3.10;;;;;;;22.17;59.40;100631.75;1770799;80;25860;-70
2022/09/11 09:06:39;;;;;;;5.50;3.15;;;;;;;22.47;56.40;100629.00;1759093;80;26498;-72
2022/09/11 09:09:15;;;;;;;16.20;2.70;;;;;;;22.72;55.38;100636.45;1759682;81;26936;-69
2022/09/11 09:12:02;;;;;;;12.15;2.27;;;;;;;22.95;56.40;100631.22;1758039;81;25782;-69
2022/09/11 09:14:57;;;;;;;11.30;2.65;;;;;;;23.29;56.57;100624.99;1762905;80;25761;-69
2022/09/11 09:17:34;;;;;;;6.30;2.20;;;;;;;23.68;55.88;100617.11;1764110;80;27584;-69
2022/09/11 09:20:20;;;;;;;9.68;2.87;;;;;;;24.08;53.08;100611.21;1764149;80;27333;-69
2022/09/11 09:22:58;;;;;;;8.43;2.50;;;;;;;24.44;50.70;100613.60;1762346;80;27999;-68
2022/09/11 09:25:27;;;;;;;15.25;2.80;;;;;;;24.99;51.35;100602.14;1763634;80;25738;-69
2022/09/11 09:28:19;;;;;;;4.12;2.17;;;;;;;25.81;49.74;100608.75;1751146;81;26489;-69
2022/09/11 09:31:04;;;;;;;9.43;2.85;;;;;;;26.54;46.71;100610.55;1739949;81;26545;-70
2022/09/11 09:33:43;;;;;;;4.00;2.17;;;;;;;27.08;46.40;100609.30;1739055;81;25835;-69
2022/09/11 09:36:19;;;;;;;18.20;2.98;;;;;;;27.84;46.24;100607.16;1767296;81;27465;-70
2022/09/11 09:38:47;;;;;;;11.95;2.62;;;;;;;28.63;45.09;100601.73;1763961;81;25768;-69
2022/09/11 09:41:35;;;;;;;5.30;2.08;;;;;;;29.36;44.08;100611.53;1736930;82;25813;-69
2022/09/11 09:44:39;;;;;;;6.17;2.12;;;;;;;30.01;41.76;100611.38;1754571;81;25785;-69
2022/09/11 09:47:10;;;;;;;22.42;2.27;;;;;;;30.68;39.58;100602.44;1764236;80;25807;-70
2022/09/11 09:49:39;;;;;;;11.87;1.27;;;;;;;31.33;38.81;100606.90;1763408;80;27543;-69
2022/09/11 09:52:20;;;;;;;5.47;1.98;;;;;;;31.78;33.71;100607.09;1750036;81;25754;-70
2022/09/11 09:55:02;;;;;;;15.53;3.35;;;;;;;31.71;34.44;100610.73;1738890;81;25831;-71
2022/09/11 09:57:31;;;;;;;5.70;1.40;;;;;;;31.79;31.69;100614.89;1758113;81;25755;-69
2022/09/11 10:00:13;;;;;;;7.37;1.50;;;;;;;31.74;33.77;100609.36;1767599;81;26100;-70
2022/09/11 10:02:56;;;;;;;3.67;1.32;;;;;;;32.17;34.15;100605.56;1763600;81;27471;-71
2022/09/11 10:05:28;;;;;;;18.95;1.80;;;;;;;32.56;32.84;100595.63;1738020;81;26069;-70
2022/09/11 10:08:02;;;;;;;4.08;1.55;;;;;;;32.97;33.26;100585.58;1784603;79;27025;-70
2022/09/11 10:10:37;;;;;;;8.40;1.80;;;;;;;33.41;32.15;100589.37;1789034;80;25810;-70
2022/09/11 10:13:19;;;;;;;6.20;1.20;;;;;;;33.67;32.05;100587.12;1788882;80;26243;-71
2022/09/11 10:15:48;;;;;;;9.68;1.30;;;;;;;34.17;31.65;100585.98;1782176;80;27449;-70
2022/09/11 10:18:36;;;;;;;3.37;1.50;;;;;;;34.67;31.30;100593.08;1776624;78;26453;-70
2022/09/11 10:21:21;;;;;;;11.57;1.60;;;;;;;35.08;29.85;100592.45;1754253;80;25784;-71
2022/09/11 10:23:57;;;;;;;20.32;2.10;;;;;;;35.40;28.95;100591.61;1762391;80;26016;-70
2022/09/11 10:26:44;;;;;;;8.60;1.42;;;;;;;35.65;29.11;100581.61;1794127;79;25792;-69
2022/09/11 10:29:23;;;;;;;4.78;1.27;;;;;;;36.01;27.80;100576.69;1758557;80;27472;-70
2022/09/11 10:31:56;;;;;;;6.75;1.12;;;;;;;35.83;28.18;100580.67;1749784;81;25936;-69
2022/09/11 10:34:26;;;;;;;7.72;1.05;;;;;;;35.66;28.60;100581.31;1753020;81;25734;-70
2022/09/11 10:37:02;;;;;;;3.27;1.32;;;;;;;36.11;26.31;100586.27;1737635;81;25835;-69
2022/09/11 10:39:33;;;;;;;10.38;1.60;;;;;;;35.90;27.60;100579.44;1759753;79;25829;-71
2022/09/11 10:42:21;;;;;;;2.25;1.07;;;;;;;34.87;26.45;100569.59;1749931;81;27473;-72
2022/09/11 10:44:51;;;;;;;4.90;1.37;;;;;;;33.63;27.69;100568.48;1751053;80;26027;-70
2022/09/11 10:47:28;;;;;;;6.40;1.10;;;;;;;33.45;28.47;100558.95;1754847;81;25822;-72
2022/09/11 10:50:20;;;;;;;4.40;1.40;;;;;;;33.82;28.54;100549.02;1754956;81;26195;-69
2022/09/11 10:53:20;;;;;;;4.65;1.30;;;;;;;34.47;28.50;100542.03;1754361;81;26431;-70
2022/09/11 10:58:37;;;;;;;7.47;1.77;;;;;;;36.03;27.41;100543.62;1777427;78;25734;-70
2022/09/11 11:01:05;;;;;;;15.63;2.07;;;;;;;36.38;25.16;100536.11;1783964;80;26963;-70
2022/09/11 11:03:31;;;;;;;7.85;1.42;;;;;;;36.10;26.87;100535.61;1779592;80;26664;-70
2022/09/11 11:06:39;;;;;;;6.78;1.30;;;;;;;35.51;25.88;100537.70;1782284;80;25791;-70
2022/09/11 11:09:35;;;;;;;6.25;1.32;;;;;;;35.76;25.00;100533.28;1769331;80;28144;-70
2022/09/11 11:12:13;;;;;;;5.20;0.95;;;;;;;36.14;25.40;100520.41;1776839;80;25823;-71
2022/09/11 11:15:05;;;;;;;3.17;1.22;;;;;;;36.62;25.27;100523.23;1766200;80;25873;-69
2022/09/11 11:18:01;;;;;;;6.65;1.60;;;;;;;37.09;24.73;100511.65;1779132;80;26454;-69
2022/09/11 11:20:54;;;;;;;7.00;1.22;;;;;;;37.44;25.39;100503.40;1783497;80;25976;-70
2022/09/11 11:23:30;;;;;;;3.40;1.00;;;;;;;37.66;22.96;100497.41;1785911;80;27529;-69
2022/09/11 11:26:32;;;;;;;20.23;2.05;;;;;;;37.37;23.14;100494.61;1778655;80;25775;-69
2022/09/11 11:29:19;;;;;;;5.55;1.20;;;;;;;37.12;24.11;100494.16;1768630;81;25822;-70
2022/09/11 11:32:07;;;;;;;15.70;2.17;;;;;;;37.15;24.34;100496.33;1767335;81;25840;-70
2022/09/11 11:35:00;;;;;;;5.40;1.10;;;;;;;36.96;23.17;100490.98;1758813;80;25850;-70
2022/09/11 11:37:37;;;;;;;7.47;1.10;;;;;;;36.54;23.96;100490.34;1777567;80;27592;-70
2022/09/11 11:40:30;;;;;;;9.43;1.37;;;;;;;36.45;23.49;100483.30;1777378;80;25809;-70
2022/09/11 11:43:11;;;;;;;9.73;1.00;;;;;;;36.17;23.70;100484.23;1768843;79;25816;-67
2022/09/11 11:46:05;;;;;;;0.88;0.70;;;;;;;35.71;23.68;100481.06;1781399;80;26278;-69
2022/09/11 11:49:13;;;;;;;15.83;1.47;;;;;;;34.84;24.43;100484.97;1786066;80;25763;-71
2022/09/11 11:51:57;;;;;;;1.25;0.75;;;;;;;35.00;24.25;100471.58;1780433;79;27440;-70
2022/09/11 11:54:38;;;;;;;2.20;0.60;;;;;;;34.82;24.98;100473.27;1782621;78;26279;-70
2022/09/11 11:57:17;;;;;;;3.40;0.90;;;;;;;35.34;24.50;100474.53;1817606;78;26627;-71
2022/09/11 12:00:02;;;;;;;7.42;1.10;;;;;;;35.76;23.69;100454.94;1789101;78;26486;-70